createdAt,value
2018-05-06T00:00:09.218Z,1003.29
2018-05-06T00:01:19.298Z,1003.32
2018-05-06T00:02:29.388Z,1003.39
2018-05-06T00:03:39.314Z,1003.36
2018-05-06T00:04:49.388Z,1003.36
2018-05-06T00:05:59.517Z,1003.38
2018-05-06T00:07:09.335Z,1003.35
2018-05-06T00:08:19.417Z,1003.33
2018-05-06T00:09:29.300Z,1003.32
2018-05-06T00:10:39.352Z,1003.27
2018-05-06T00:11:49.423Z,1003.22
2018-05-06T00:12:59.501Z,1003.25
2018-05-06T00:14:09.048Z,1003.24
2018-05-06T00:15:19.102Z,1003.17
2018-05-06T00:16:28.921Z,1003.19
2018-05-06T00:17:39.005Z,1003.18
2018-05-06T00:18:49.088Z,1003.17
2018-05-06T00:19:59.419Z,1003.15
2018-05-06T00:21:09.577Z,1003.23
2018-05-06T00:22:19.644Z,1003.23
2018-05-06T00:23:29.710Z,1003.16
2018-05-06T00:24:39.786Z,1003.21
2018-05-06T00:25:49.843Z,1003.2
2018-05-06T00:26:59.935Z,1003.21
2018-05-06T00:28:09.748Z,1003.17
2018-05-06T00:29:19.818Z,1003.21
2018-05-06T00:30:29.891Z,1003.18
2018-05-06T00:31:39.963Z,1003.17
2018-05-06T00:32:49.823Z,1003.19
2018-05-06T00:33:59.377Z,1003.17
2018-05-06T00:35:09.184Z,1003.17
2018-05-06T00:36:19.255Z,1003.19
2018-05-06T00:37:29.342Z,1003.2
2018-05-06T00:38:39.464Z,1003.16
2018-05-06T00:39:49.324Z,1003.13
2018-05-06T00:40:59.412Z,1003.19
2018-05-06T00:42:09.225Z,1003.19
2018-05-06T00:43:19.308Z,1003.15
2018-05-06T00:44:29.377Z,1003.2
2018-05-06T00:45:39.191Z,1003.18
2018-05-06T00:46:49.254Z,1003.18
2018-05-06T00:47:59.341Z,1003.22
2018-05-06T00:49:09.215Z,1003.21
2018-05-06T00:50:19.280Z,1003.22
2018-05-06T00:51:29.365Z,1003.2
2018-05-06T00:52:39.445Z,1003.21
2018-05-06T00:53:49.523Z,1003.23
2018-05-06T00:54:59.320Z,1003.22
2018-05-06T00:56:09.409Z,1003.21
2018-05-06T00:57:19.500Z,1003.25
2018-05-06T00:58:29.577Z,1003.27
2018-05-06T00:59:39.684Z,1003.24
2018-05-06T01:00:49.774Z,1003.26
2018-05-06T01:01:59.852Z,1003.21
2018-05-06T01:03:09.659Z,1003.23
2018-05-06T01:04:19.481Z,1003.18
2018-05-06T01:05:28.757Z,1003.17
2018-05-06T01:06:38.573Z,1003.14
2018-05-06T01:07:48.646Z,1003.12
2018-05-06T01:08:58.702Z,1003.12
2018-05-06T01:10:08.783Z,1003.09
2018-05-06T01:11:18.861Z,1003.07
2018-05-06T01:12:28.940Z,1003.07
2018-05-06T01:13:38.751Z,1003.09
2018-05-06T01:14:48.829Z,1003.07
2018-05-06T01:15:58.653Z,1003.02
2018-05-06T01:17:08.720Z,1003
2018-05-06T01:18:18.538Z,1003.01
2018-05-06T01:19:29.218Z,1003.04
2018-05-06T01:20:39.025Z,1003.01
2018-05-06T01:21:48.851Z,1003.05
2018-05-06T01:22:58.145Z,1003
2018-05-06T01:24:08.227Z,1002.99
2018-05-06T01:25:18.382Z,1002.96
2018-05-06T01:26:28.434Z,1002.95
2018-05-06T01:27:38.249Z,1002.91
2018-05-06T01:28:48.052Z,1002.95
2018-05-06T01:29:58.118Z,1002.98
2018-05-06T01:31:07.984Z,1003
2018-05-06T01:32:18.267Z,1002.95
2018-05-06T01:33:28.339Z,1002.97
2018-05-06T01:34:38.416Z,1003
2018-05-06T01:35:48.490Z,1003.03
2018-05-06T01:36:58.627Z,1002.97
2018-05-06T01:38:08.690Z,1002.99
2018-05-06T01:39:18.752Z,1002.99
2018-05-06T01:40:28.564Z,1002.99
2018-05-06T01:41:38.386Z,1002.97
2018-05-06T01:42:48.479Z,1002.98
2018-05-06T01:43:58.555Z,1002.99
2018-05-06T01:45:08.628Z,1003.03
2018-05-06T01:46:18.704Z,1002.99
2018-05-06T01:47:28.774Z,1002.95
2018-05-06T01:48:38.851Z,1002.97
2018-05-06T01:49:48.647Z,1002.96
2018-05-06T01:50:58.744Z,1002.95
2018-05-06T01:52:08.565Z,1002.95
2018-05-06T01:53:18.639Z,1002.92
2018-05-06T01:54:28.709Z,1002.89
2018-05-06T01:55:38.794Z,1002.94
2018-05-06T01:56:48.608Z,1003
2018-05-06T01:57:58.672Z,1002.96
2018-05-06T01:59:08.523Z,1002.95
2018-05-06T02:00:18.601Z,1002.96
2018-05-06T02:01:28.409Z,1002.95
2018-05-06T02:02:38.480Z,1002.92
2018-05-06T02:03:48.548Z,1002.95
2018-05-06T02:04:58.615Z,1002.98
2018-05-06T02:06:08.487Z,1002.95
2018-05-06T02:07:18.280Z,1002.94
2018-05-06T02:08:28.360Z,1002.96
2018-05-06T02:09:38.428Z,1002.93
2018-05-06T02:10:48.498Z,1002.87
2018-05-06T02:11:58.659Z,1002.93
2018-05-06T02:13:08.819Z,1002.9
2018-05-06T02:14:18.907Z,1002.9
2018-05-06T02:15:28.465Z,1002.86
2018-05-06T02:16:38.534Z,1002.85
2018-05-06T02:17:48.601Z,1002.83
2018-05-06T02:18:58.413Z,1002.82
2018-05-06T02:20:08.488Z,1002.83
2018-05-06T02:21:18.546Z,1002.8
2018-05-06T02:22:28.617Z,1002.81
2018-05-06T02:23:38.742Z,1002.73
2018-05-06T02:24:48.816Z,1002.77
2018-05-06T02:26:07.142Z,1002.81
2018-05-06T02:27:16.958Z,1002.78
2018-05-06T02:28:27.026Z,1002.78
2018-05-06T02:29:37.121Z,1002.78
2018-05-06T02:30:46.672Z,1002.87
2018-05-06T02:31:56.490Z,1002.82
2018-05-06T02:33:06.309Z,1002.8
2018-05-06T02:34:16.399Z,1002.8
2018-05-06T02:35:26.510Z,1002.84
2018-05-06T02:36:36.597Z,1002.83
2018-05-06T02:37:46.468Z,1002.84
2018-05-06T02:38:56.586Z,1002.83
2018-05-06T02:40:06.669Z,1002.88
2018-05-06T02:41:16.770Z,1002.85
2018-05-06T02:42:26.848Z,1002.86
2018-05-06T02:43:36.924Z,1002.85
2018-05-06T02:44:46.755Z,1002.84
2018-05-06T02:45:56.848Z,1002.84
2018-05-06T02:47:06.921Z,1002.84
2018-05-06T02:48:17.005Z,1002.87
2018-05-06T02:49:27.156Z,1002.86
2018-05-06T02:50:37.229Z,1002.84
2018-05-06T02:51:47.318Z,1002.87
2018-05-06T02:52:57.381Z,1002.87
2018-05-06T02:54:07.197Z,1002.88
2018-05-06T02:55:17.020Z,1002.9
2018-05-06T02:56:27.082Z,1002.93
2018-05-06T02:57:36.893Z,1002.9
2018-05-06T02:58:46.984Z,1002.92
2018-05-06T02:59:57.081Z,1002.97
2018-05-06T03:01:07.142Z,1002.98
2018-05-06T03:02:17.244Z,1002.94
2018-05-06T03:34:08.556Z,1003.15
2018-05-06T03:35:18.698Z,1003.2
2018-05-06T03:36:28.755Z,1003.22
2018-05-06T03:37:38.819Z,1003.22
2018-05-06T03:38:48.889Z,1003.23
2018-05-06T03:39:58.689Z,1003.21
2018-05-06T03:41:08.231Z,1003.18
2018-05-06T03:42:18.034Z,1003.19
2018-05-06T03:43:27.575Z,1003.21
2018-05-06T03:44:37.686Z,1003.19
2018-05-06T03:45:47.508Z,1003.22
2018-05-06T03:46:57.573Z,1003.19
2018-05-06T03:48:07.651Z,1003.22
2018-05-06T03:49:17.721Z,1003.23
2018-05-06T03:50:27.783Z,1003.26
2018-05-06T03:51:37.580Z,1003.26
2018-05-06T03:52:47.390Z,1003.24
2018-05-06T03:53:57.546Z,1003.28
2018-05-06T03:55:07.627Z,1003.29
2018-05-06T03:56:17.707Z,1003.29
2018-05-06T03:57:27.822Z,1003.31
2018-05-06T03:58:37.900Z,1003.26
2018-05-06T03:59:47.966Z,1003.28
2018-05-06T04:00:58.046Z,1003.27
2018-05-06T04:02:08.107Z,1003.3
2018-05-06T04:03:18.192Z,1003.3
2018-05-06T04:04:28.279Z,1003.33
2018-05-06T04:05:38.349Z,1003.35
2018-05-06T04:06:48.571Z,1003.37
2018-05-06T04:07:58.387Z,1003.41
2018-05-06T04:09:08.457Z,1003.37
2018-05-06T04:10:18.534Z,1003.38
2018-05-06T04:11:28.617Z,1003.4
2018-05-06T04:12:38.691Z,1003.36
2018-05-06T04:13:48.245Z,1003.32
2018-05-06T04:14:58.048Z,1003.35
2018-05-06T04:16:07.640Z,1003.3
2018-05-06T04:17:17.702Z,1003.31
2018-05-06T04:18:27.766Z,1003.28
2018-05-06T04:19:37.588Z,1003.29
2018-05-06T04:20:47.651Z,1003.31
2018-05-06T04:21:57.198Z,1003.38
2018-05-06T04:23:07.255Z,1003.38
2018-05-06T04:24:17.337Z,1003.33
2018-05-06T04:25:27.148Z,1003.38
2018-05-06T04:26:37.210Z,1003.32
2018-05-06T04:27:47.396Z,1003.44
2018-05-06T04:28:57.492Z,1003.39
2018-05-06T04:30:07.563Z,1003.41
2018-05-06T04:31:17.375Z,1003.37
2018-05-06T04:32:27.499Z,1003.44
2018-05-06T04:33:37.309Z,1003.41
2018-05-06T04:34:47.129Z,1003.48
2018-05-06T04:35:56.970Z,1003.48
2018-05-06T04:37:07.032Z,1003.5
2018-05-06T04:38:16.581Z,1003.43
2018-05-06T04:39:26.394Z,1003.71
2018-05-06T04:40:36.470Z,1003.86
2018-05-06T04:41:46.564Z,1003.87
2018-05-06T04:42:56.644Z,1004.02
2018-05-06T04:44:06.551Z,1003.82
2018-05-06T04:45:17.008Z,1003.93
2018-05-06T04:46:27.090Z,1003.9
2018-05-06T04:47:37.169Z,1003.94
2018-05-06T04:48:46.982Z,1003.94
2018-05-06T04:49:56.646Z,1003.9
2018-05-06T04:51:06.803Z,1003.9
2018-05-06T04:52:16.878Z,1003.88
2018-05-06T04:53:26.960Z,1003.88
2018-05-06T04:54:36.766Z,1003.86
2018-05-06T04:55:46.862Z,1003.9
2018-05-06T04:56:56.952Z,1003.96
2018-05-06T04:58:07.041Z,1003.99
2018-05-06T04:59:17.112Z,1004.03
2018-05-06T05:00:26.734Z,1004.38
2018-05-06T05:01:36.615Z,1004.54
2018-05-06T05:02:46.433Z,1004.21
2018-05-06T05:03:56.495Z,1004.13
2018-05-06T05:05:06.034Z,1004.32
2018-05-06T05:06:15.832Z,1004.23
2018-05-06T05:07:25.893Z,1004.19
2018-05-06T05:08:35.713Z,1004.4
2018-05-06T05:09:45.520Z,1004.43
2018-05-06T05:10:55.379Z,1004.38
2018-05-06T05:12:05.202Z,1004.21
2018-05-06T05:13:15.319Z,1004.31
2018-05-06T05:14:25.387Z,1004.29
2018-05-06T05:15:35.547Z,1004.24
2018-05-06T05:16:45.629Z,1004.24
2018-05-06T05:17:55.444Z,1004.27
2018-05-06T05:19:05.517Z,1004.13
2018-05-06T05:20:14.807Z,1004.09
2018-05-06T05:21:24.876Z,1004.08
2018-05-06T05:22:34.958Z,1004.07
2018-05-06T05:23:44.844Z,1004.1
2018-05-06T05:24:54.704Z,1004.25
2018-05-06T05:26:04.508Z,1004.33
2018-05-06T05:27:14.334Z,1004.32
2018-05-06T05:28:24.146Z,1004.32
2018-05-06T05:29:34.217Z,1004.2
2018-05-06T05:30:44.303Z,1004.26
2018-05-06T05:31:54.389Z,1004.23
2018-05-06T05:33:04.477Z,1004.14
2018-05-06T05:34:14.548Z,1004.1
2018-05-06T05:35:24.815Z,1004.13
2018-05-06T05:36:34.891Z,1004.28
2018-05-06T05:37:44.979Z,1004.15
2018-05-06T05:38:54.787Z,1004.15
2018-05-06T05:40:04.862Z,1004.13
2018-05-06T05:41:14.964Z,1004.15
2018-05-06T05:42:24.589Z,1004.14
2018-05-06T05:43:34.688Z,1004.13
2018-05-06T05:44:44.496Z,1004.12
2018-05-06T05:45:54.666Z,1004.15
2018-05-06T05:47:04.764Z,1004.17
2018-05-06T05:48:14.366Z,1004.09
2018-05-06T05:49:24.422Z,1004.05
2018-05-06T05:50:34.239Z,1004.07
2018-05-06T05:51:43.804Z,1004.05
2018-05-06T05:52:53.351Z,1004
2018-05-06T05:54:03.446Z,1004.05
2018-05-06T05:55:13.531Z,1003.91
2018-05-06T05:56:23.349Z,1003.76
2018-05-06T05:57:33.168Z,1003.67
2018-05-06T05:58:43.275Z,1003.63
2018-05-06T05:59:53.145Z,1003.64
2018-05-06T06:01:03.246Z,1003.67
2018-05-06T06:02:13.315Z,1003.72
2018-05-06T06:03:22.944Z,1003.75
2018-05-06T06:04:33.021Z,1003.68
2018-05-06T06:05:43.090Z,1003.75
2018-05-06T06:06:53.177Z,1003.72
2018-05-06T06:08:03.249Z,1003.81
2018-05-06T06:09:13.331Z,1003.65
2018-05-06T06:10:23.403Z,1003.71
2018-05-06T06:11:33.232Z,1003.68
2018-05-06T06:12:43.055Z,1003.78
2018-05-06T06:13:53.179Z,1003.79
2018-05-06T06:15:03.002Z,1003.81
2018-05-06T06:16:13.081Z,1003.8
2018-05-06T06:17:23.161Z,1003.79
2018-05-06T06:18:33.229Z,1003.75
2018-05-06T06:19:42.780Z,1003.77
2018-05-06T06:20:52.855Z,1003.88
2018-05-06T06:22:02.950Z,1003.82
2018-05-06T06:23:13.048Z,1003.83
2018-05-06T06:24:23.139Z,1003.81
2018-05-06T06:25:33.454Z,1003.76
2018-05-06T06:26:43.544Z,1003.71
2018-05-06T06:27:53.623Z,1003.79
2018-05-06T06:29:03.753Z,1003.7
2018-05-06T06:30:13.834Z,1003.75
2018-05-06T06:31:23.906Z,1003.74
2018-05-06T06:32:33.735Z,1003.76
2018-05-06T06:33:43.806Z,1003.74
2018-05-06T06:34:53.597Z,1003.75
2018-05-06T06:36:03.685Z,1003.76
2018-05-06T06:37:13.771Z,1003.72
2018-05-06T06:38:23.876Z,1003.76
2018-05-06T06:39:34.114Z,1003.72
2018-05-06T06:40:44.227Z,1003.69
2018-05-06T06:41:54.049Z,1003.74
2018-05-06T06:43:04.144Z,1003.71
2018-05-06T06:44:14.199Z,1003.74
2018-05-06T06:45:24.275Z,1003.74
2018-05-06T06:46:34.367Z,1003.72
2018-05-06T06:47:43.908Z,1003.74
2018-05-06T06:48:53.447Z,1003.64
2018-05-06T06:50:03.641Z,1003.71
2018-05-06T06:51:13.738Z,1003.74
2018-05-06T06:52:23.807Z,1003.68
2018-05-06T06:53:33.901Z,1003.67
2018-05-06T06:54:43.995Z,1003.69
2018-05-06T06:55:54.080Z,1003.69
2018-05-06T06:57:03.898Z,1003.65
2018-05-06T06:58:13.993Z,1003.65
2018-05-06T06:59:23.797Z,1003.64
2018-05-06T07:00:33.630Z,1003.56
2018-05-06T07:01:43.718Z,1003.61
2018-05-06T07:02:53.555Z,1003.56
2018-05-06T07:04:03.648Z,1003.56
2018-05-06T07:05:13.746Z,1003.52
2018-05-06T07:06:23.843Z,1003.5
2018-05-06T07:07:33.681Z,1003.57
2018-05-06T07:08:43.501Z,1003.61
2018-05-06T07:09:53.567Z,1003.57
2018-05-06T07:11:03.653Z,1003.56
2018-05-06T07:12:13.522Z,1003.54
2018-05-06T07:13:23.611Z,1003.52
2018-05-06T07:14:33.731Z,1003.56
2018-05-06T07:15:43.807Z,1003.53
2018-05-06T07:16:53.875Z,1003.58
2018-05-06T07:18:03.718Z,1003.47
2018-05-06T07:19:13.894Z,1003.53
2018-05-06T07:20:23.869Z,1003.51
2018-05-06T07:21:33.995Z,1003.48
2018-05-06T07:22:44.073Z,1003.54
2018-05-06T07:23:54.166Z,1003.54
2018-05-06T07:25:04.223Z,1003.46
2018-05-06T07:26:14.303Z,1003.45
2018-05-06T07:27:24.440Z,1003.43
2018-05-06T07:28:34.524Z,1003.44
2018-05-06T07:29:44.350Z,1003.45
2018-05-06T07:30:54.672Z,1003.45
2018-05-06T07:32:04.523Z,1003.41
2018-05-06T07:33:14.602Z,1003.45
2018-05-06T07:34:24.713Z,1003.46
2018-05-06T07:35:34.818Z,1003.45
2018-05-06T07:36:45.032Z,1003.46
2018-05-06T07:37:55.111Z,1003.51
2018-05-06T07:39:05.216Z,1003.54
2018-05-06T07:40:15.309Z,1003.46
2018-05-06T07:41:25.467Z,1003.55
2018-05-06T07:42:35.447Z,1003.45
2018-05-06T07:43:45.283Z,1003.43
2018-05-06T07:44:55.111Z,1003.48
2018-05-06T07:46:05.210Z,1003.41
2018-05-06T07:47:15.038Z,1003.46
2018-05-06T07:48:25.130Z,1003.38
2018-05-06T07:49:35.226Z,1003.37
2018-05-06T07:50:45.318Z,1003.27
2018-05-06T07:51:55.143Z,1003.37
2018-05-06T07:53:05.233Z,1003.37
2018-05-06T07:54:15.330Z,1003.44
2018-05-06T07:55:25.459Z,1003.4
2018-05-06T07:56:35.295Z,1003.45
2018-05-06T07:57:45.126Z,1003.55
2018-05-06T07:58:55.281Z,1003.44
2018-05-06T08:00:05.123Z,1003.44
2018-05-06T08:01:14.945Z,1003.51
2018-05-06T08:02:24.768Z,1003.52
2018-05-06T08:03:34.898Z,1003.45
2018-05-06T08:04:44.751Z,1003.44
2018-05-06T08:05:54.826Z,1003.42
2018-05-06T08:07:04.904Z,1003.43
2018-05-06T08:08:15.063Z,1003.39
2018-05-06T08:09:25.152Z,1003.42
2018-05-06T08:10:34.985Z,1003.43
2018-05-06T08:11:45.102Z,1003.46
2018-05-06T08:12:54.914Z,1003.4
2018-05-06T08:14:04.783Z,1003.47
2018-05-06T08:15:14.621Z,1003.43
2018-05-06T08:16:24.776Z,1003.35
2018-05-06T08:17:34.792Z,1003.38
2018-05-06T08:18:44.892Z,1003.4
2018-05-06T08:19:54.982Z,1003.35
2018-05-06T08:21:05.060Z,1003.4
2018-05-06T08:22:15.151Z,1003.51
2018-05-06T08:23:25.218Z,1003.51
2018-05-06T08:24:35.056Z,1003.46
2018-05-06T08:25:45.146Z,1003.42
2018-05-06T08:26:54.961Z,1003.39
2018-05-06T08:28:04.755Z,1003.43
2018-05-06T08:29:14.565Z,1003.51
2018-05-06T08:30:24.399Z,1003.35
2018-05-06T08:31:34.276Z,1003.38
2018-05-06T08:32:44.118Z,1003.34
2018-05-06T08:33:54.223Z,1003.4
2018-05-06T08:35:04.315Z,1003.42
2018-05-06T08:36:14.142Z,1003.32
2018-05-06T08:37:23.997Z,1003.41
2018-05-06T08:38:34.013Z,1003.43
2018-05-06T08:39:43.843Z,1003.42
2018-05-06T08:40:53.992Z,1003.39
2018-05-06T08:42:03.843Z,1003.38
2018-05-06T08:43:13.940Z,1003.39
2018-05-06T08:44:23.776Z,1003.42
2018-05-06T08:45:33.857Z,1003.41
2018-05-06T08:46:44.105Z,1003.41
2018-05-06T08:47:54.247Z,1003.39
2018-05-06T08:49:04.366Z,1003.38
2018-05-06T08:50:14.175Z,1003.32
2018-05-06T08:51:24.268Z,1003.41
2018-05-06T08:52:34.691Z,1003.32
2018-05-06T08:53:44.776Z,1003.35
2018-05-06T08:54:54.899Z,1003.39
2018-05-06T08:56:04.999Z,1003.36
2018-05-06T08:57:15.070Z,1003.35
2018-05-06T08:58:25.145Z,1003.36
2018-05-06T08:59:35.321Z,1003.29
2018-05-06T09:00:45.749Z,1003.42
2018-05-06T09:01:55.866Z,1003.36
2018-05-06T09:03:05.978Z,1003.34
2018-05-06T09:04:16.059Z,1003.33
2018-05-06T09:05:26.229Z,1003.35
2018-05-06T09:06:36.415Z,1003.39
2018-05-06T09:07:46.494Z,1003.36
2018-05-06T09:08:56.603Z,1003.33
2018-05-06T09:10:06.690Z,1003.33
2018-05-06T09:11:16.550Z,1003.32
2018-05-06T09:12:26.712Z,1003.37
2018-05-06T09:13:36.807Z,1003.37
2018-05-06T09:14:46.646Z,1003.22
2018-05-06T09:15:56.767Z,1003.38
2018-05-06T09:17:06.899Z,1003.35
2018-05-06T09:18:17.056Z,1003.42
2018-05-06T09:19:27.168Z,1003.32
2018-05-06T09:20:37.407Z,1003.34
2018-05-06T09:21:47.586Z,1003.38
2018-05-06T09:22:57.352Z,1003.28
2018-05-06T09:24:06.982Z,1003.26
2018-05-06T09:25:17.104Z,1003.26
2018-05-06T09:26:27.713Z,1003.23
2018-05-06T09:27:37.810Z,1003.29
2018-05-06T09:28:47.914Z,1003.21
2018-05-06T09:29:58.088Z,1003.24
2018-05-06T09:31:08.187Z,1003.26
2018-05-06T09:32:18.315Z,1003.26
2018-05-06T09:33:28.417Z,1003.16
2018-05-06T09:34:38.264Z,1003.15
2018-05-06T09:35:48.382Z,1003.18
2018-05-06T09:36:58.487Z,1003.13
2018-05-06T09:38:08.338Z,1003.11
2018-05-06T09:39:18.216Z,1003.07
2018-05-06T09:40:28.383Z,1003.14
2018-05-06T09:41:38.207Z,1003.06
2018-05-06T09:42:48.327Z,1003.04
2018-05-06T09:43:58.430Z,1003.1
2018-05-06T09:45:08.515Z,1003.11
2018-05-06T09:46:18.366Z,1003.02
2018-05-06T09:47:28.450Z,1003.1
2018-05-06T09:48:38.949Z,1003.11
2018-05-06T09:49:49.108Z,1003.13
2018-05-06T09:50:59.208Z,1003.15
2018-05-06T09:52:09.036Z,1003.09
2018-05-06T09:53:18.622Z,1003.15
2018-05-06T09:54:28.722Z,1003.1
2018-05-06T09:55:38.616Z,1003.12
2018-05-06T09:56:48.703Z,1003.1
2018-05-06T09:57:59.025Z,1003.12
2018-05-06T09:59:09.115Z,1003.09
2018-05-06T10:00:18.947Z,1003.19
2018-05-06T10:01:29.109Z,1003.11
2018-05-06T10:02:39.208Z,1003.1
2018-05-06T10:03:49.317Z,1003.08
2018-05-06T10:04:59.454Z,1003.13
2018-05-06T10:06:09.287Z,1003.15
2018-05-06T10:07:19.376Z,1003.23
2018-05-06T10:08:29.211Z,1003.3
2018-05-06T10:09:39.367Z,1003.07
2018-05-06T10:10:49.460Z,1003.15
2018-05-06T10:11:59.605Z,1003.21
2018-05-06T10:13:09.452Z,1003.2
2018-05-06T10:14:19.773Z,1003.14
2018-05-06T10:15:29.599Z,1003.18
2018-05-06T10:16:39.765Z,1003.14
2018-05-06T10:17:49.859Z,1003.07
2018-05-06T10:18:59.971Z,1003.05
2018-05-06T10:20:10.052Z,1003.07
2018-05-06T10:21:19.911Z,1003.1
2018-05-06T10:22:30.020Z,1003.12
2018-05-06T10:23:40.125Z,1003.09
2018-05-06T10:24:50.238Z,1003.09
2018-05-06T10:26:00.362Z,1002.97
2018-05-06T10:27:10.577Z,1003.03
2018-05-06T10:28:20.470Z,1003.03
2018-05-06T10:29:30.606Z,1002.96
2018-05-06T10:30:40.449Z,1002.95
2018-05-06T10:31:50.512Z,1002.9
2018-05-06T10:33:00.601Z,1002.89
2018-05-06T10:34:10.421Z,1002.98
2018-05-06T10:35:20.558Z,1003
2018-05-06T10:36:30.663Z,1002.9
2018-05-06T10:37:40.752Z,1002.93
2018-05-06T10:38:50.828Z,1002.97
2018-05-06T10:40:00.964Z,1002.96
2018-05-06T10:41:11.094Z,1002.95
2018-05-06T10:42:21.260Z,1002.93
2018-05-06T10:43:31.892Z,1002.92
2018-05-06T10:44:42.080Z,1002.92
2018-05-06T10:45:52.369Z,1002.97
2018-05-06T10:47:02.618Z,1002.89
2018-05-06T10:48:13.159Z,1002.9
2018-05-06T10:49:23.371Z,1002.94
2018-05-06T10:50:33.797Z,1002.92
2018-05-06T10:51:43.624Z,1002.87
2018-05-06T10:52:53.750Z,1002.82
2018-05-06T10:54:03.827Z,1002.81
2018-05-06T10:55:13.922Z,1002.8
2018-05-06T10:56:23.750Z,1002.9
2018-05-06T10:57:33.578Z,1002.79
2018-05-06T10:58:43.150Z,1002.84
2018-05-06T10:59:53.264Z,1002.84
2018-05-06T11:01:03.349Z,1002.8
2018-05-06T11:02:13.172Z,1002.8
2018-05-06T11:03:23.041Z,1002.76
2018-05-06T11:04:32.868Z,1002.77
2018-05-06T11:05:42.979Z,1002.79
2018-05-06T11:06:53.074Z,1002.75
2018-05-06T11:08:02.897Z,1002.75
2018-05-06T11:09:13.049Z,1002.75
2018-05-06T11:10:23.255Z,1002.66
2018-05-06T11:11:34.134Z,1002.6
2018-05-06T11:12:44.249Z,1002.6
2018-05-06T11:13:54.331Z,1002.58
2018-05-06T11:15:04.410Z,1002.64
2018-05-06T11:16:14.492Z,1002.56
2018-05-06T11:17:24.580Z,1002.53
2018-05-06T11:18:34.669Z,1002.53
2018-05-06T11:19:44.480Z,1002.56
2018-05-06T11:20:54.632Z,1002.55
2018-05-06T11:22:04.446Z,1002.57
2018-05-06T11:23:14.532Z,1002.57
2018-05-06T11:24:24.624Z,1002.6
2018-05-06T11:25:34.715Z,1002.6
2018-05-06T11:26:44.831Z,1002.55
2018-05-06T11:27:54.691Z,1002.56
2018-05-06T11:29:04.253Z,1002.65
2018-05-06T11:30:14.369Z,1002.61
2018-05-06T11:31:24.476Z,1002.58
2018-05-06T11:32:34.630Z,1002.56
2018-05-06T11:33:44.585Z,1002.56
2018-05-06T11:34:54.587Z,1002.5
2018-05-06T11:36:04.700Z,1002.47
2018-05-06T11:37:14.831Z,1002.62
2018-05-06T11:38:24.984Z,1002.48
2018-05-06T11:39:34.584Z,1002.52
2018-05-06T11:40:44.671Z,1002.43
2018-05-06T11:41:54.828Z,1002.47
2018-05-06T11:43:04.640Z,1002.47
2018-05-06T11:44:14.756Z,1002.5
2018-05-06T11:45:24.612Z,1002.44
2018-05-06T11:46:34.460Z,1002.48
2018-05-06T11:47:44.564Z,1002.49
2018-05-06T11:48:54.706Z,1002.38
2018-05-06T11:50:04.835Z,1002.38
2018-05-06T11:51:14.929Z,1002.34
2018-05-06T11:52:25.128Z,1002.44
2018-05-06T11:53:35.232Z,1002.41
2018-05-06T11:54:45.331Z,1002.46
2018-05-06T11:55:55.462Z,1002.36
2018-05-06T11:57:05.545Z,1002.37
2018-05-06T11:58:15.640Z,1002.33
2018-05-06T11:59:25.731Z,1002.34
2018-05-06T12:00:36.106Z,1002.36
2018-05-06T12:01:46.222Z,1002.27
2018-05-06T12:02:56.320Z,1002.28
2018-05-06T12:04:06.433Z,1002.32
2018-05-06T12:05:16.539Z,1002.29
2018-05-06T12:06:26.667Z,1002.32
2018-05-06T12:07:36.818Z,1002.3
2018-05-06T12:08:47.152Z,1002.26
2018-05-06T12:09:57.288Z,1002.26
2018-05-06T12:11:07.755Z,1002.26
2018-05-06T12:12:17.878Z,1002.22
2018-05-06T12:13:27.972Z,1002.24
2018-05-06T12:14:37.816Z,1002.25
2018-05-06T12:15:47.917Z,1002.25
2018-05-06T12:16:58.111Z,1002.12
2018-05-06T12:18:08.211Z,1002.2
2018-05-06T12:19:18.049Z,1002.22
2018-05-06T12:20:28.136Z,1002.21
2018-05-06T12:21:37.711Z,1002.3
2018-05-06T12:22:47.811Z,1002.14
2018-05-06T12:23:57.708Z,1002.18
2018-05-06T12:25:08.239Z,1002.25
2018-05-06T12:26:18.353Z,1002.15
2018-05-06T12:27:28.168Z,1002.18
2018-05-06T12:28:38.292Z,1002.16
2018-05-06T12:29:48.365Z,1002.2
2018-05-06T12:30:58.264Z,1002.24
2018-05-06T12:32:07.854Z,1002.18
2018-05-06T12:33:18.008Z,1002.23
2018-05-06T12:34:28.111Z,1002.22
2018-05-06T12:35:37.671Z,1002.18
2018-05-06T12:36:47.760Z,1002.09
2018-05-06T12:37:57.866Z,1002.17
2018-05-06T12:39:07.715Z,1002.19
2018-05-06T12:40:17.564Z,1002.17
2018-05-06T12:41:27.671Z,1002.21
2018-05-06T12:42:37.510Z,1002.19
2018-05-06T12:43:47.353Z,1002.21
2018-05-06T12:44:57.452Z,1002.16
2018-05-06T12:46:07.302Z,1002.16
2018-05-06T12:47:17.407Z,1002.1
2018-05-06T12:48:27.266Z,1002.18
2018-05-06T12:49:37.386Z,1002.13
2018-05-06T12:50:47.499Z,1002.25
2018-05-06T12:51:57.321Z,1002.12
2018-05-06T12:53:07.204Z,1002.09
2018-05-06T12:54:17.382Z,1002.13
2018-05-06T12:55:27.463Z,1002.01
2018-05-06T12:56:37.539Z,1002.09
2018-05-06T12:57:47.626Z,1002.03
2018-05-06T12:58:57.457Z,1001.97
2018-05-06T13:00:07.310Z,1002.01
2018-05-06T13:01:17.410Z,1001.99
2018-05-06T13:02:27.568Z,1001.98
2018-05-06T13:03:37.688Z,1001.98
2018-05-06T13:04:48.036Z,1001.95
2018-05-06T13:06:03.173Z,1001.88
2018-05-06T13:07:17.694Z,1001.95
2018-05-06T13:08:32.740Z,1001.9
2018-05-06T13:09:46.815Z,1001.94
2018-05-06T13:11:01.059Z,1001.92
2018-05-06T13:12:19.246Z,1001.93
2018-05-06T13:13:32.157Z,1001.89
2018-05-06T13:14:45.878Z,1001.87
2018-05-06T13:16:00.848Z,1001.89
2018-05-06T13:17:16.577Z,1001.88
2018-05-06T13:18:30.024Z,1001.82
2018-05-06T13:19:41.044Z,1001.85
2018-05-06T13:20:55.318Z,1001.91
2018-05-06T13:22:09.433Z,1001.83
2018-05-06T13:23:23.307Z,1001.88
2018-05-06T13:24:37.602Z,1001.85
2018-05-06T13:25:50.558Z,1001.84
2018-05-06T13:27:02.928Z,1001.77
2018-05-06T13:28:15.938Z,1001.79
2018-05-06T13:29:30.444Z,1001.81
2018-05-06T13:30:43.275Z,1001.77
2018-05-06T13:31:55.544Z,1001.76
2018-05-06T13:33:12.128Z,1001.77
2018-05-06T13:34:26.009Z,1001.72
2018-05-06T13:35:38.365Z,1001.77
2018-05-06T13:36:53.183Z,1001.73
2018-05-06T13:38:05.362Z,1001.73
2018-05-06T13:39:19.967Z,1001.76
2018-05-06T13:40:34.671Z,1001.77
2018-05-06T13:41:50.179Z,1001.71
2018-05-06T13:43:04.485Z,1001.7
2018-05-06T13:44:17.498Z,1001.68
2018-05-06T13:45:32.507Z,1001.72
2018-05-06T13:46:46.555Z,1001.62
2018-05-06T13:48:02.668Z,1001.67
2018-05-06T13:49:18.656Z,1001.67
2018-05-06T13:50:32.752Z,1001.71
2018-05-06T13:51:45.588Z,1001.69
2018-05-06T13:52:58.179Z,1001.65
2018-05-06T13:54:10.361Z,1001.66
2018-05-06T13:55:24.860Z,1001.63
2018-05-06T13:56:38.284Z,1001.62
2018-05-06T13:57:51.564Z,1001.64
2018-05-06T13:59:01.742Z,1001.65
2018-05-06T14:00:11.495Z,1001.65
2018-05-06T14:01:24.467Z,1001.59
2018-05-06T14:02:35.507Z,1001.54
2018-05-06T14:03:46.581Z,1001.56
2018-05-06T14:04:58.456Z,1001.59
2018-05-06T14:06:13.347Z,1001.64
2018-05-06T14:07:29.754Z,1001.55
2018-05-06T14:08:42.602Z,1001.54
2018-05-06T14:09:55.854Z,1001.53
2018-05-06T14:11:06.022Z,1001.47
2018-05-06T14:12:16.252Z,1001.54
2018-05-06T14:13:29.282Z,1001.58
2018-05-06T14:14:41.923Z,1001.53
2018-05-06T14:15:58.011Z,1001.51
2018-05-06T14:17:12.234Z,1001.51
2018-05-06T14:18:25.919Z,1001.52
2018-05-06T14:19:39.520Z,1001.52
2018-05-06T14:20:52.115Z,1001.45
2018-05-06T14:22:03.638Z,1001.48
2018-05-06T14:23:15.988Z,1001.44
2018-05-06T14:24:28.939Z,1001.48
2018-05-06T14:25:41.742Z,1001.41
2018-05-06T14:26:56.446Z,1001.38
2018-05-06T14:28:09.091Z,1001.37
2018-05-06T14:29:21.666Z,1001.43
2018-05-06T14:30:33.407Z,1001.41
2018-05-06T14:31:45.128Z,1001.4
2018-05-06T14:32:59.751Z,1001.35
2018-05-06T14:34:11.564Z,1001.38
2018-05-06T14:35:24.294Z,1001.35
2018-05-06T14:36:36.066Z,1001.3
2018-05-06T14:37:49.289Z,1001.32
2018-05-06T14:39:02.201Z,1001.29
2018-05-06T14:40:12.040Z,1001.35
2018-05-06T14:41:22.148Z,1001.32
2018-05-06T14:42:32.232Z,1001.29
2018-05-06T14:43:42.412Z,1001.3
2018-05-06T14:44:52.255Z,1001.32